Time;durP1;ratioP1;P1;durP2;ratioP2;P2;SDS_P1;SDS_P2;PMS_P1;PMS_P2;Temp;Humidity;BMP_temperature;BMP_pressure;BME280_temperature;BME280_humidity;BME280_pressure;Samples;Min_cycle;Max_cycle;Signal;HPM_P1;HPM_P2
2022/02/10 00:21:10;;;;;;;31.80;15.13;;;;;;;2.75;68.52;102072.17;1681094;85;25802;-62
2022/02/10 00:36:40;;;;;;;31.52;13.75;;;;;;;2.84;69.16;102079.41;1702628;84;25687;-62
2022/02/10 00:39:26;;;;;;;31.35;14.78;;;;;;;2.90;69.25;102080.55;1701436;84;26221;-62
2022/02/10 00:41:35;;;;;;;33.88;15.65;;;;;;;2.94;69.22;102076.40;1699048;84;25899;-63
2022/02/10 00:44:01;;;;;;;35.40;17.35;;;;;;;2.96;69.11;102080.32;1701579;84;27469;-63
2022/02/10 00:46:28;;;;;;;41.15;19.55;;;;;;;2.88;68.47;102080.58;1717005;83;25704;-62
2022/02/10 00:48:55;;;;;;;35.50;17.35;;;;;;;2.79;68.56;102075.14;1674562;85;25763;-63
2022/02/10 00:51:22;;;;;;;33.10;17.50;;;;;;;2.74;68.52;102074.42;1674455;85;25908;-63
2022/02/10 00:53:49;;;;;;;31.40;16.73;;;;;;;2.68;68.49;102070.66;1674538;85;25725;-63
2022/02/10 00:56:15;;;;;;;35.83;17.55;;;;;;;2.59;68.35;102070.53;1691009;84;27546;-63
2022/02/10 00:58:45;;;;;;;43.45;19.37;;;;;;;2.50;68.34;102079.66;1701430;83;25818;-63
2022/02/10 01:31:10;;;;;;;32.55;17.10;;;;;;;2.51;69.72;102089.81;1701691;83;25886;-61
2022/02/10 01:33:39;;;;;;;32.08;18.27;;;;;;;2.55;69.74;102087.48;1671126;85;25815;-62
2022/02/10 01:36:07;;;;;;;40.25;18.77;;;;;;;2.61;69.84;102085.08;1671394;85;28568;-61
2022/02/10 01:38:34;;;;;;;36.63;20.37;;;;;;;2.64;69.38;102079.20;1670961;85;25817;-62
2022/02/10 02:05:49;;;;;;;31.87;14.78;;;;;;;2.43;70.41;102067.52;1680419;84;25820;-63
2022/02/10 02:08:15;;;;;;;28.12;14.03;;;;;;;2.46;70.33;102075.39;1680147;85;26079;-62
2022/02/10 02:10:42;;;;;;;34.03;15.95;;;;;;;2.49;70.62;102070.42;1687896;85;25724;-62
2022/02/10 02:13:08;;;;;;;33.95;13.88;;;;;;;2.53;70.67;102069.86;1680515;85;26144;-63
2022/02/10 02:15:35;;;;;;;21.62;13.15;;;;;;;2.56;70.84;102075.94;1646801;85;27505;-62
2022/02/10 02:18:02;;;;;;;23.98;14.50;;;;;;;2.58;70.85;102075.87;1701453;84;25708;-63
2022/02/10 02:20:29;;;;;;;23.98;14.13;;;;;;;2.63;71.01;102069.95;1701053;83;25714;-63
2022/02/10 02:22:55;;;;;;;29.72;14.83;;;;;;;2.69;70.82;102071.06;1701212;84;27621;-62
2022/02/10 02:25:23;;;;;;;22.58;13.30;;;;;;;2.71;70.59;102073.22;1715384;83;25775;-62
2022/02/10 02:27:56;;;;;;;32.03;15.93;;;;;;;2.74;70.75;102078.41;1669362;84;28182;-63
2022/02/10 02:30:35;;;;;;;29.40;14.47;;;;;;;2.84;70.96;102076.31;1672981;84;25923;-62
2022/02/10 02:35:43;;;;;;;32.08;16.32;;;;;;;3.02;71.24;102068.60;1701357;84;25829;-63
2022/02/10 03:05:24;;;;;;;35.15;18.67;;;;;;;2.70;70.23;102067.93;1679457;85;25842;-62
2022/02/10 03:07:48;;;;;;;34.20;18.07;;;;;;;2.71;70.55;102068.34;1679414;85;28373;-62
2022/02/10 03:12:42;;;;;;;36.03;17.98;;;;;;;2.72;70.91;102063.00;1680606;83;25756;-61
2022/02/10 03:15:20;;;;;;;34.85;18.02;;;;;;;2.75;71.07;102067.33;1708297;84;26138;-62
2022/02/10 03:17:45;;;;;;;32.48;17.48;;;;;;;2.74;71.00;102060.27;1706224;84;25829;-61
2022/02/10 04:04:13;;;;;;;31.10;18.75;;;;;;;2.47;70.36;102050.53;1701394;84;25902;-61
2022/02/10 04:06:52;;;;;;;33.48;16.60;;;;;;;2.40;70.34;102047.69;1699781;84;25750;-62
2022/02/10 04:11:54;;;;;;;26.90;15.80;;;;;;;2.38;70.60;102045.53;1702655;83;25811;-62
2022/02/10 04:14:26;;;;;;;29.80;16.45;;;;;;;2.40;70.81;102050.81;1700923;83;28106;-62
2022/02/10 04:17:01;;;;;;;32.98;17.17;;;;;;;2.43;71.10;102051.58;1675412;84;25704;-62
2022/02/10 04:26:30;;;;;;;34.27;18.62;;;;;;;2.63;71.87;102043.39;1713610;83;25832;-61
2022/02/10 05:07:05;;;;;;;39.58;21.85;;;;;;;2.89;70.81;102017.20;1667611;85;25772;-63
2022/02/10 05:12:39;;;;;;;37.88;20.20;;;;;;;2.77;70.81;102024.30;1663392;84;25752;-63
2022/02/10 05:17:22;;;;;;;50.03;25.48;;;;;;;2.64;71.34;102037.16;1651477;85;26172;-63
2022/02/10 05:33:36;;;;;;;31.17;17.57;;;;;;;2.65;72.87;102056.14;1657474;84;26029;-62
2022/02/10 05:36:00;;;;;;;31.82;18.42;;;;;;;2.58;72.38;102047.98;1695359;82;27506;-63
2022/02/10 05:38:30;;;;;;;36.15;19.55;;;;;;;2.64;72.60;102059.74;1694764;83;25806;-62
2022/02/10 05:43:45;;;;;;;33.65;17.95;;;;;;;2.81;72.67;102061.34;1694358;83;26428;-62
2022/02/10 05:46:23;;;;;;;33.88;17.60;;;;;;;2.89;72.69;102066.84;1713265;82;25839;-63
2022/02/10 05:57:11;;;;;;;36.08;19.17;;;;;;;3.03;72.60;102062.37;1677905;85;25729;-63
2022/02/10 06:42:41;;;;;;;36.38;19.92;;;;;;;3.25;71.82;102081.06;1685596;84;25515;-65
2022/02/10 06:51:05;;;;;;;43.23;24.35;;;;;;;3.42;72.73;102086.63;1685403;84;26309;-62
2022/02/10 06:53:42;;;;;;;42.08;22.37;;;;;;;3.47;72.96;102092.22;1686521;84;25843;-62
2022/02/10 07:04:12;;;;;;;43.70;23.65;;;;;;;3.68;73.10;102099.84;1644354;85;25841;-62
2022/02/10 07:07:24;;;;;;;45.83;21.93;;;;;;;3.74;72.79;102096.48;1674944;84;25677;-62
2022/02/10 07:11:50;;;;;;;46.00;23.12;;;;;;;3.87;72.41;102102.20;1681873;85;25791;-62
2022/02/10 07:46:31;;;;;;;63.15;29.87;;;;;;;4.57;70.11;102083.91;1679546;85;25717;-62
2022/02/10 07:49:46;;;;;;;52.60;25.20;;;;;;;4.72;69.89;102096.57;1681350;85;27476;-62
2022/02/10 07:59:56;;;;;;;57.85;25.85;;;;;;;4.94;69.58;102088.95;1681437;84;25982;-62
2022/02/10 08:56:35;;;;;;;52.45;22.20;;;;;;;7.76;67.13;102081.31;1674784;84;27394;-63
2022/02/10 09:01:50;;;;;;;60.65;30.50;;;;;;;8.02;65.26;102081.69;1644531;87;25868;-63
2022/02/10 09:04:11;;;;;;;69.37;30.32;;;;;;;8.12;63.94;102085.53;1686483;83;25891;-64
2022/02/10 09:15:00;;;;;;;70.12;27.67;;;;;;;8.27;62.15;102081.11;1671653;84;25714;-62
2022/02/10 09:48:12;;;;;;;50.08;22.52;;;;;;;8.68;60.32;102072.95;1696588;82;25881;-62
2022/02/10 10:01:03;;;;;;;53.17;23.60;;;;;;;9.05;59.82;102057.31;1663490;86;25793;-63
2022/02/10 10:03:04;;;;;;;61.15;26.97;;;;;;;9.16;59.46;102054.44;1684378;84;27513;-63
2022/02/10 10:05:34;;;;;;;66.53;27.65;;;;;;;9.26;59.33;102054.26;1698931;82;25848;-63
2022/02/10 10:13:50;;;;;;;59.18;24.00;;;;;;;9.76;58.25;102048.42;1696918;82;25759;-63
2022/02/10 10:52:07;;;;;;;30.52;10.13;;;;;;;11.20;51.48;102011.84;1658733;86;26536;-62
2022/02/10 10:54:42;;;;;;;23.85;9.63;;;;;;;11.31;48.89;102009.22;1695855;83;26443;-63
2022/02/10 10:57:15;;;;;;;17.90;8.40;;;;;;;11.40;48.81;102004.52;1686905;84;27491;-64
2022/02/10 10:59:41;;;;;;;22.42;8.50;;;;;;;11.52;49.65;101994.67;1691380;83;25825;-63
2022/02/10 11:39:19;;;;;;;14.80;5.60;;;;;;;14.70;44.16;101954.65;1652489;85;28214;-62
2022/02/10 11:42:27;;;;;;;8.10;3.70;;;;;;;14.82;43.88;101958.97;1638106;85;25829;-61
2022/02/10 11:45:42;;;;;;;5.67;3.70;;;;;;;14.94;44.47;101962.44;1647929;86;25768;-61
2022/02/10 12:00:38;;;;;;;10.00;4.00;;;;;;;15.57;42.04;101949.66;1638154;86;25536;-65
2022/02/10 13:03:07;;;;;;;15.25;5.45;;;;;;;15.20;42.50;101910.47;1636917;83;28162;-62
2022/02/10 13:49:09;;;;;;;15.90;5.28;;;;;;;13.92;40.35;101868.36;1710023;83;25771;-63
2022/02/10 14:17:55;;;;;;;18.07;8.38;;;;;;;12.26;43.87;101854.80;1637010;87;25805;-63
2022/02/10 14:23:04;;;;;;;25.40;9.03;;;;;;;12.02;45.00;101854.88;1565822;87;25883;-63
2022/02/10 14:28:05;;;;;;;28.40;11.88;;;;;;;12.83;45.66;101850.73;1652221;85;25761;-63
2022/02/10 14:30:33;;;;;;;18.42;10.28;;;;;;;14.20;44.49;101848.39;1687014;84;25764;-63
2022/02/10 14:33:00;;;;;;;23.65;9.33;;;;;;;15.07;43.36;101843.48;1690348;84;26738;-63
2022/02/10 14:35:40;;;;;;;13.25;8.48;;;;;;;14.74;41.48;101846.89;1694472;83;25808;-62
2022/02/10 14:38:22;;;;;;;20.57;9.90;;;;;;;14.25;42.08;101846.13;1698113;83;28248;-62
2022/02/10 14:43:34;;;;;;;21.87;10.05;;;;;;;13.29;42.93;101842.91;1663687;84;25745;-63
2022/02/10 15:52:08;;;;;;;67.22;23.62;;;;;;;8.27;54.54;101796.09;1645959;86;25751;-62
2022/02/10 15:54:34;;;;;;;57.05;20.88;;;;;;;8.16;54.84;101798.08;1643864;85;25820;-61
2022/02/10 16:17:45;;;;;;;49.97;23.83;;;;;;;7.52;55.99;101772.94;1654813;85;25841;-60
2022/02/10 16:20:18;;;;;;;54.77;25.25;;;;;;;7.44;56.20;101775.22;1656605;85;27852;-61
2022/02/10 16:22:57;;;;;;;56.48;25.75;;;;;;;7.37;56.34;101772.03;1648803;85;25894;-61
2022/02/10 16:25:11;;;;;;;59.20;21.40;;;;;;;7.26;56.15;101779.33;1663917;84;28396;-61
2022/02/10 16:27:45;;;;;;;37.08;16.37;;;;;;;7.23;56.35;101785.34;1648437;86;25739;-61
2022/02/10 16:30:13;;;;;;;31.10;15.25;;;;;;;7.14;56.35;101776.05;1632507;86;25829;-61
2022/02/10 16:32:40;;;;;;;46.95;16.00;;;;;;;7.02;56.42;101770.45;1632557;86;25863;-61
2022/02/10 16:35:09;;;;;;;25.88;13.25;;;;;;;6.91;56.40;101776.89;1618132;87;26033;-61
2022/02/10 16:37:37;;;;;;;36.73;14.38;;;;;;;6.83;56.54;101781.81;1615620;87;28263;-61
2022/02/10 16:40:05;;;;;;;25.10;12.88;;;;;;;6.74;56.66;101774.70;1687783;84;25534;-61
2022/02/10 16:42:32;;;;;;;27.75;12.55;;;;;;;6.70;56.60;101776.30;1682963;85;25662;-61
2022/02/10 16:44:59;;;;;;;28.10;12.15;;;;;;;6.61;56.84;101776.81;1682074;85;26156;-61
2022/02/10 16:47:26;;;;;;;34.40;14.45;;;;;;;6.49;57.05;101776.56;1683991;85;25466;-63
2022/02/10 16:49:53;;;;;;;84.90;50.63;;;;;;;6.34;57.14;101770.25;1681929;85;28394;-63
2022/02/10 16:52:35;;;;;;;30.05;15.40;;;;;;;6.21;57.17;101775.41;1681396;84;26384;-60
2022/02/10 16:55:15;;;;;;;29.87;11.35;;;;;;;6.10;57.38;101778.63;1681501;85;25474;-61
2022/02/10 17:00:50;;;;;;;22.93;11.40;;;;;;;5.89;57.60;101781.09;1652671;86;25737;-61
2022/02/10 17:18:49;;;;;;;27.48;13.20;;;;;;;5.14;58.72;101777.33;1683905;84;25542;-62
2022/02/10 17:21:14;;;;;;;28.10;11.65;;;;;;;5.10;58.92;101767.74;1654486;86;25545;-61
2022/02/10 17:28:41;;;;;;;23.35;12.03;;;;;;;5.00;59.27;101760.20;1685155;85;27484;-61
2022/02/10 17:36:29;;;;;;;22.13;11.57;;;;;;;4.86;60.10;101748.87;1681438;83;25730;-61
2022/02/10 17:41:53;;;;;;;24.30;12.85;;;;;;;4.84;60.71;101737.89;1689364;84;28446;-60
2022/02/10 17:44:18;;;;;;;23.00;11.80;;;;;;;4.86;61.03;101741.36;1654174;84;25501;-61
2022/02/10 17:54:21;;;;;;;33.15;14.10;;;;;;;4.77;61.42;101741.80;1691785;83;27555;-61
2022/02/10 17:56:50;;;;;;;32.35;12.30;;;;;;;4.73;61.33;101742.88;1689545;84;25792;-61
2022/02/10 17:59:20;;;;;;;24.12;11.88;;;;;;;4.71;61.49;101736.30;1689532;84;25707;-62
2022/02/10 18:01:49;;;;;;;28.60;12.63;;;;;;;4.67;61.52;101739.58;1688654;84;26572;-62
2022/02/10 18:04:18;;;;;;;23.50;11.93;;;;;;;4.67;61.83;101730.25;1690128;84;25481;-61
2022/02/10 18:06:48;;;;;;;29.65;12.95;;;;;;;4.60;61.47;101734.16;1687672;84;27425;-61
2022/02/10 18:15:05;;;;;;;26.15;14.75;;;;;;;4.46;61.48;101726.83;1680205;85;26527;-61
2022/02/10 18:17:32;;;;;;;39.78;16.60;;;;;;;4.34;61.45;101719.41;1680463;85;25766;-61
2022/02/10 18:20:05;;;;;;;34.63;15.18;;;;;;;4.17;61.28;101724.20;1681642;84;27490;-62
2022/02/10 18:25:32;;;;;;;32.67;14.50;;;;;;;4.01;61.39;101716.91;1676652;84;25720;-61
2022/02/10 18:28:06;;;;;;;28.50;14.20;;;;;;;3.92;61.40;101713.33;1680980;84;26454;-61
2022/02/10 18:30:38;;;;;;;25.82;15.32;;;;;;;3.82;61.96;101711.56;1681560;84;25960;-61
2022/02/10 19:09:23;;;;;;;27.87;13.72;;;;;;;3.09;64.30;101704.05;1687258;83;25834;-62
2022/02/10 19:10:58;;;;;;;23.92;12.90;;;;;;;3.05;64.19;101709.12;1677625;83;25951;-62
2022/02/10 19:13:24;;;;;;;26.25;13.78;;;;;;;3.04;64.33;101703.39;1666865;84;27671;-62
2022/02/10 19:15:54;;;;;;;31.70;13.98;;;;;;;2.97;64.77;101702.78;1669062;84;25796;-62
2022/02/10 19:18:21;;;;;;;25.43;14.85;;;;;;;2.92;64.37;101696.80;1671532;84;25803;-61
2022/02/10 19:20:48;;;;;;;37.13;15.45;;;;;;;2.88;64.38;101700.50;1685327;84;26715;-61
2022/02/10 19:23:15;;;;;;;32.50;13.93;;;;;;;2.86;64.43;101705.48;1693983;83;25836;-62
2022/02/10 19:25:42;;;;;;;26.55;14.15;;;;;;;2.81;64.92;101693.27;1684125;84;27532;-62
2022/02/10 19:28:10;;;;;;;34.38;18.12;;;;;;;2.61;64.77;101698.05;1694850;83;26457;-62
2022/02/10 19:30:39;;;;;;;38.25;16.97;;;;;;;2.43;65.36;101704.09;1694191;84;25679;-62
2022/02/10 19:33:14;;;;;;;39.83;15.68;;;;;;;2.41;65.23;101697.52;1694323;83;25821;-61
2022/02/10 19:35:46;;;;;;;36.73;16.20;;;;;;;2.43;65.44;101693.47;1689591;83;25528;-60
2022/02/10 19:38:18;;;;;;;30.12;16.90;;;;;;;2.41;65.34;101694.86;1665292;84;27610;-60
2022/02/10 19:40:50;;;;;;;30.62;15.78;;;;;;;2.39;65.15;101686.09;1659288;84;25765;-60
2022/02/10 19:43:15;;;;;;;29.87;15.58;;;;;;;2.39;65.15;101689.22;1621799;86;25484;-62
2022/02/10 19:45:42;;;;;;;31.80;15.63;;;;;;;2.35;65.28;101689.33;1633490;86;26427;-60
2022/02/10 19:48:09;;;;;;;27.50;15.78;;;;;;;2.33;65.58;101696.48;1649518;86;25754;-63
2022/02/10 19:50:36;;;;;;;36.98;17.48;;;;;;;2.26;65.56;101683.53;1647705;84;27557;-60
2022/02/10 19:53:07;;;;;;;46.70;15.93;;;;;;;2.22;65.82;101677.48;1644283;85;25768;-61
2022/02/10 19:55:35;;;;;;;29.75;13.88;;;;;;;2.25;65.98;101685.78;1642413;86;25671;-61
2022/02/10 19:58:06;;;;;;;25.30;12.90;;;;;;;2.29;66.02;101680.73;1652906;84;25862;-60
2022/02/10 20:00:38;;;;;;;61.35;14.40;;;;;;;2.28;66.02;101674.57;1675728;84;25733;-60
2022/02/10 20:03:11;;;;;;;32.78;13.48;;;;;;;2.26;66.33;101675.56;1668025;84;27679;-60
2022/02/10 20:05:32;;;;;;;27.37;12.00;;;;;;;2.22;66.22;101667.30;1630620;85;25844;-60
2022/02/10 20:07:59;;;;;;;29.75;13.00;;;;;;;2.19;66.33;101667.85;1613441;87;25828;-60
2022/02/10 20:10:25;;;;;;;24.95;13.15;;;;;;;2.16;66.45;101661.77;1617044;87;25850;-60
2022/02/10 20:12:53;;;;;;;28.98;12.43;;;;;;;2.17;66.44;101667.03;1659436;86;25698;-60
2022/02/10 20:15:22;;;;;;;27.42;13.88;;;;;;;2.15;66.56;101663.56;1667124;84;27506;-62
2022/02/10 20:17:51;;;;;;;24.27;13.00;;;;;;;2.14;66.28;101661.84;1670304;83;25717;-61
2022/02/10 20:20:18;;;;;;;27.65;13.05;;;;;;;2.11;66.24;101663.27;1705680;82;26674;-60
2022/02/10 20:22:45;;;;;;;22.20;13.80;;;;;;;2.10;66.40;101668.20;1624086;88;25906;-61
2022/02/10 20:25:12;;;;;;;32.45;15.18;;;;;;;2.09;66.40;101666.91;1613590;88;25861;-60
2022/02/10 20:27:38;;;;;;;31.37;13.83;;;;;;;2.08;66.38;101664.73;1652176;86;27467;-61
2022/02/10 20:30:08;;;;;;;26.17;13.98;;;;;;;2.02;66.09;101664.95;1634311;87;25791;-60
2022/02/10 20:32:35;;;;;;;22.40;13.10;;;;;;;2.01;66.10;101665.42;1689356;84;25861;-61
2022/02/10 20:35:03;;;;;;;22.95;13.35;;;;;;;1.98;66.13;101656.72;1688955;84;25789;-60
2022/02/10 20:37:30;;;;;;;34.53;14.30;;;;;;;1.93;65.73;101658.23;1632965;86;26129;-61
2022/02/10 20:39:57;;;;;;;26.25;12.78;;;;;;;1.84;65.70;101652.79;1665646;84;27936;-63
2022/02/10 20:42:24;;;;;;;26.10;13.65;;;;;;;1.72;65.58;101649.30;1686059;84;25739;-63
2022/02/10 20:44:54;;;;;;;28.92;15.08;;;;;;;1.67;65.81;101646.81;1693316;84;25794;-61
2022/02/10 20:47:23;;;;;;;32.10;16.50;;;;;;;1.64;66.12;101642.09;1692462;84;25757;-61
2022/02/10 20:49:49;;;;;;;32.85;17.00;;;;;;;1.65;66.59;101645.14;1693523;84;25778;-61
2022/02/10 20:52:16;;;;;;;33.88;17.35;;;;;;;1.63;66.58;101650.96;1692648;84;27497;-61
2022/02/10 20:54:43;;;;;;;36.15;17.25;;;;;;;1.61;66.73;101643.52;1686489;84;25748;-61
2022/02/10 20:57:10;;;;;;;30.88;17.55;;;;;;;1.62;67.12;101645.25;1688862;83;25744;-61
2022/02/10 20:59:41;;;;;;;29.98;15.80;;;;;;;1.65;67.08;101636.71;1692580;84;25853;-61
2022/02/10 21:02:16;;;;;;;31.87;15.23;;;;;;;1.65;67.05;101632.73;1690454;84;25775;-61
2022/02/10 21:05:30;;;;;;;28.05;14.80;;;;;;;1.65;66.99;101631.88;1689618;84;28284;-61
2022/02/10 21:07:21;;;;;;;30.77;15.80;;;;;;;1.58;67.14;101633.00;1661783;84;25843;-62
2022/02/10 21:12:10;;;;;;;28.62;15.80;;;;;;;1.55;67.23;101621.62;1693277;83;25859;-61
2022/02/10 21:14:37;;;;;;;30.62;15.93;;;;;;;1.47;66.84;101618.83;1654176;85;25849;-61
2022/02/10 21:17:11;;;;;;;29.45;15.68;;;;;;;1.41;66.84;101609.31;1692349;84;28521;-61
2022/02/10 21:19:34;;;;;;;28.40;15.25;;;;;;;1.37;66.89;101603.73;1690974;83;25772;-61
2022/02/10 21:22:09;;;;;;;30.23;14.75;;;;;;;1.32;66.71;101601.69;1693475;84;25823;-62
2022/02/10 21:24:31;;;;;;;27.85;15.15;;;;;;;1.31;66.81;101605.26;1687308;84;25769;-61
2022/02/10 21:28:02;;;;;;;22.75;13.45;;;;;;;1.25;66.96;101601.07;1684876;85;25803;-61
2022/02/10 21:29:35;;;;;;;25.05;13.62;;;;;;;1.18;66.88;101607.48;1675513;85;27473;-62
2022/02/10 21:32:04;;;;;;;27.50;14.73;;;;;;;1.16;67.10;101610.20;1691481;84;25773;-61
2022/02/10 21:34:36;;;;;;;23.20;12.78;;;;;;;1.17;67.28;101605.31;1693729;84;25756;-61
2022/02/10 21:37:05;;;;;;;28.55;14.83;;;;;;;1.20;67.31;101606.54;1688523;84;25843;-61
2022/02/10 21:45:43;;;;;;;21.60;11.90;;;;;;;1.26;67.35;101606.75;1678868;84;25800;-61
2022/02/10 21:47:38;;;;;;;24.70;12.82;;;;;;;1.25;67.40;101605.90;1653406;85;25603;-61
2022/02/10 21:58:25;;;;;;;25.27;11.55;;;;;;;1.21;67.06;101598.97;1657193;86;25778;-61
2022/02/10 22:10:48;;;;;;;56.58;27.98;;;;;;;0.99;67.07;101605.96;1644551;84;25891;-63
2022/02/10 22:18:38;;;;;;;40.67;20.82;;;;;;;0.97;67.35;101602.50;1684051;85;25937;-62
2022/02/10 22:21:03;;;;;;;35.48;16.52;;;;;;;0.96;67.74;101596.78;1678643;84;27498;-62
2022/02/10 22:23:34;;;;;;;24.57;13.30;;;;;;;0.91;67.55;101597.83;1675023;84;25732;-62
2022/02/10 22:26:04;;;;;;;27.15;13.15;;;;;;;0.90;67.70;101594.77;1684895;84;25845;-62
2022/02/10 22:36:11;;;;;;;27.67;15.30;;;;;;;0.90;67.82;101592.13;1675092;83;25784;-62
2022/02/10 22:38:38;;;;;;;27.48;15.78;;;;;;;0.89;67.87;101595.69;1675113;84;25444;-62
2022/02/10 22:41:10;;;;;;;28.05;13.83;;;;;;;0.89;67.69;101600.98;1644647;85;25807;-61
2022/02/10 22:43:43;;;;;;;24.75;12.00;;;;;;;0.87;67.62;101604.61;1679264;85;25913;-62
2022/02/10 22:46:10;;;;;;;21.93;12.10;;;;;;;0.84;67.39;101606.91;1651198;86;27557;-61
2022/02/10 22:48:40;;;;;;;21.35;12.53;;;;;;;0.77;67.16;101598.30;1656356;86;25528;-62
2022/02/10 22:51:07;;;;;;;21.52;10.88;;;;;;;0.70;67.21;101602.53;1709761;83;25451;-61
2022/02/10 22:53:34;;;;;;;21.87;11.35;;;;;;;0.67;67.32;101596.88;1709384;83;26397;-62
2022/02/10 22:56:01;;;;;;;20.95;12.25;;;;;;;0.64;67.54;101596.13;1686536;83;25815;-61
2022/02/10 22:58:29;;;;;;;19.48;11.33;;;;;;;0.62;67.64;101593.06;1675686;83;27545;-62
2022/02/10 23:00:57;;;;;;;19.50;11.15;;;;;;;0.57;68.01;101592.81;1696896;83;25650;-62
2022/02/10 23:03:28;;;;;;;20.90;12.68;;;;;;;0.55;68.12;101589.34;1675106;85;25855;-62
2022/02/10 23:05:56;;;;;;;22.05;13.03;;;;;;;0.56;68.19;101587.10;1644444;85;25791;-61
2022/02/10 23:08:22;;;;;;;23.85;12.65;;;;;;;0.59;68.28;101590.51;1682008;85;25665;-61
2022/02/10 23:14:36;;;;;;;29.72;14.05;;;;;;;0.65;68.33;101585.94;1684972;83;25656;-61
2022/02/10 23:17:04;;;;;;;24.98;12.78;;;;;;;0.71;68.26;101581.31;1685343;85;25704;-62
2022/02/10 23:19:31;;;;;;;24.02;13.32;;;;;;;0.66;67.99;101583.70;1685152;84;26467;-62
2022/02/10 23:21:58;;;;;;;28.73;12.88;;;;;;;0.60;67.96;101580.80;1684050;85;25731;-61
2022/02/10 23:24:24;;;;;;;27.70;13.60;;;;;;;0.55;67.86;101569.05;1691366;83;27519;-62
2022/02/10 23:26:52;;;;;;;25.23;14.23;;;;;;;0.52;67.86;101574.43;1709474;83;25914;-62
2022/02/10 23:29:19;;;;;;;29.82;13.45;;;;;;;0.46;67.61;101561.41;1679008;83;25743;-61
2022/02/10 23:31:45;;;;;;;22.27;12.18;;;;;;;0.42;67.82;101571.23;1659091;85;25793;-61
2022/02/10 23:34:12;;;;;;;22.62;13.28;;;;;;;0.42;68.04;101574.33;1655849;86;25745;-61
2022/02/10 23:39:22;;;;;;;22.30;12.50;;;;;;;0.42;68.00;101583.59;1640997;86;25657;-62
2022/02/10 23:44:26;;;;;;;22.10;13.75;;;;;;;0.43;68.26;101580.03;1679592;85;25800;-62
2022/02/10 23:46:49;;;;;;;25.30;12.90;;;;;;;0.44;68.26;101584.41;1680666;85;25751;-61
2022/02/10 23:49:19;;;;;;;24.35;13.00;;;;;;;0.50;68.22;101589.97;1680953;85;27446;-61
2022/02/10 23:51:54;;;;;;;25.48;13.32;;;;;;;0.51;68.19;101588.58;1680577;83;25753;-62
2022/02/10 23:54:18;;;;;;;30.08;12.15;;;;;;;0.51;68.07;101590.38;1680219;83;25736;-61
2022/02/10 23:56:54;;;;;;;27.98;14.30;;;;;;;0.48;68.02;101595.77;1679721;85;26699;-62
2022/02/10 23:59:29;;;;;;;25.90;14.13;;;;;;;0.45;68.17;101593.62;1679052;85;25795;-62
